Time;durP1;ratioP1;P1;durP2;ratioP2;P2;SDS_P1;SDS_P2;PMS_P1;PMS_P2;Temp;Humidity;BMP_temperature;BMP_pressure;BME280_temperature;BME280_humidity;BME280_pressure;Samples;Min_cycle;Max_cycle;Signal;HPM_P1;HPM_P2
2022/04/28 00:01:52;;;;;;;23.02;12.70;;;;;;;7.97;74.93;102534.03;5063143;28;20020;-72
2022/04/28 00:04:18;;;;;;;24.52;13.13;;;;;;;7.97;74.62;102534.03;5031207;28;20461;-72
2022/04/28 00:06:43;;;;;;;23.38;11.30;;;;;;;7.90;74.45;102535.31;5063426;28;20131;-74
2022/04/28 00:09:09;;;;;;;24.27;12.05;;;;;;;7.87;74.93;102538.09;5079553;28;20114;-72
2022/04/28 00:11:36;;;;;;;22.15;11.82;;;;;;;7.80;75.01;102531.69;5046989;28;20489;-71
2022/04/28 00:14:07;;;;;;;21.58;11.32;;;;;;;7.73;75.70;102531.22;5042651;28;20391;-71
2022/04/28 00:16:34;;;;;;;24.08;12.20;;;;;;;7.66;76.53;102536.84;5062497;28;20021;-71
2022/04/28 00:19:01;;;;;;;19.08;11.55;;;;;;;7.58;77.03;102543.31;5045047;28;20502;-73
2022/04/28 00:21:26;;;;;;;21.33;11.52;;;;;;;7.56;77.86;102534.84;5048184;28;20032;-73
2022/04/28 00:23:51;;;;;;;23.23;12.95;;;;;;;7.52;77.61;102542.88;5030423;28;20675;-73
2022/04/28 00:26:17;;;;;;;26.55;11.68;;;;;;;7.45;78.29;102542.41;5064620;28;20036;-72
2022/04/28 00:28:42;;;;;;;24.55;13.23;;;;;;;7.40;78.14;102534.09;5078338;28;20024;-71
2022/04/28 00:31:08;;;;;;;24.40;13.65;;;;;;;7.35;78.69;102528.41;5063073;28;20029;-71
2022/04/28 00:33:33;;;;;;;26.13;13.95;;;;;;;7.32;78.85;102533.75;5062560;28;20037;-71
2022/04/28 00:35:59;;;;;;;25.40;13.35;;;;;;;7.31;78.74;102529.50;5079939;28;20025;-71
2022/04/28 00:38:24;;;;;;;28.38;13.20;;;;;;;7.30;78.35;102533.00;5044754;28;20117;-72
2022/04/28 00:40:50;;;;;;;23.88;12.45;;;;;;;7.23;78.54;102535.13;5048868;28;20039;-72
2022/04/28 00:43:18;;;;;;;20.40;12.18;;;;;;;7.21;78.66;102535.22;5066099;28;20382;-74
2022/04/28 00:45:45;;;;;;;25.67;12.50;;;;;;;7.19;78.72;102536.22;5063915;28;20031;-71
2022/04/28 00:50:57;;;;;;;24.83;11.95;;;;;;;7.20;78.47;102537.91;5045515;28;20028;-73
2022/04/28 00:53:25;;;;;;;23.83;11.95;;;;;;;7.18;78.33;102532.00;5063158;28;20333;-71
2022/04/28 00:55:51;;;;;;;20.55;10.65;;;;;;;7.16;78.24;102537.25;5045115;28;20575;-73
2022/04/28 00:58:18;;;;;;;24.75;10.75;;;;;;;7.18;78.25;102537.97;5043472;28;20632;-73
2022/04/28 01:00:44;;;;;;;20.42;10.50;;;;;;;7.17;78.17;102543.22;5062265;28;20124;-71
2022/04/28 01:03:10;;;;;;;20.25;10.05;;;;;;;7.13;77.97;102539.19;5044299;28;20487;-71
2022/04/28 01:05:36;;;;;;;16.95;9.18;;;;;;;7.08;77.79;102539.44;5027657;28;20037;-71
2022/04/28 01:08:01;;;;;;;18.60;8.95;;;;;;;7.09;77.87;102535.94;5061902;28;20024;-71
2022/04/28 01:10:27;;;;;;;21.60;9.65;;;;;;;7.07;77.95;102537.78;5042174;28;20418;-71
2022/04/28 01:12:53;;;;;;;18.30;9.40;;;;;;;7.04;77.98;102532.81;5063361;28;20036;-71
2022/04/28 01:15:18;;;;;;;17.95;10.15;;;;;;;7.00;78.16;102528.75;5025696;28;20036;-72
2022/04/28 01:17:44;;;;;;;14.52;9.25;;;;;;;7.00;78.20;102533.91;5074702;28;20511;-71
2022/04/28 01:20:10;;;;;;;17.77;9.20;;;;;;;6.97;78.18;102542.66;5042860;28;20078;-71
2022/04/28 01:22:38;;;;;;;19.85;9.00;;;;;;;6.96;78.37;102542.75;5073734;28;20028;-73
2022/04/28 01:25:09;;;;;;;17.25;8.57;;;;;;;6.90;78.38;102549.09;5025906;28;20084;-72
2022/04/28 01:27:36;;;;;;;18.95;8.32;;;;;;;6.87;78.62;102551.84;5043534;28;20123;-71
2022/04/28 01:30:22;;;;;;;21.17;9.30;;;;;;;6.83;78.57;102543.44;5043608;28;20067;-72
2022/04/28 01:32:54;;;;;;;16.83;8.02;;;;;;;6.80;78.78;102545.41;5043847;28;20028;-71
2022/04/28 01:35:20;;;;;;;21.13;8.90;;;;;;;6.77;78.33;102545.56;5057880;28;20680;-73
2022/04/28 01:37:49;;;;;;;12.50;8.43;;;;;;;6.74;78.11;102546.59;5041709;28;20089;-73
2022/04/28 01:40:16;;;;;;;14.63;8.50;;;;;;;6.69;78.36;102551.16;5042898;28;20079;-71
2022/04/28 01:42:45;;;;;;;21.00;9.27;;;;;;;6.64;78.54;102548.00;5062224;28;20024;-72
2022/04/28 01:45:12;;;;;;;18.35;8.45;;;;;;;6.62;78.51;102545.50;5044725;28;20079;-73
2022/04/28 01:48:16;;;;;;;16.20;7.50;;;;;;;6.58;78.92;102548.38;4996213;28;20092;-75
2022/04/28 01:56:43;;;;;;;16.50;8.18;;;;;;;6.46;79.26;102542.19;5040685;28;20020;-72
2022/04/28 01:59:24;;;;;;;17.08;8.00;;;;;;;6.39;79.90;102543.44;5043060;28;20037;-72
2022/04/28 02:02:10;;;;;;;15.07;7.88;;;;;;;6.39;79.46;102544.25;5025487;28;21585;-73
2022/04/28 02:04:35;;;;;;;17.55;7.97;;;;;;;6.38;79.88;102541.75;5042766;28;20093;-72
2022/04/28 02:07:01;;;;;;;15.27;8.63;;;;;;;6.36;80.00;102543.59;5056037;28;20469;-72
2022/04/28 02:09:27;;;;;;;23.42;8.48;;;;;;;6.30;79.85;102539.59;5026294;28;20017;-73
2022/04/28 02:11:54;;;;;;;16.50;8.43;;;;;;;6.28;80.66;102549.16;5057720;28;20025;-71
2022/04/28 02:14:43;;;;;;;16.20;8.45;;;;;;;6.30;80.03;102551.66;5030308;28;20040;-71
2022/04/28 02:17:38;;;;;;;17.58;8.57;;;;;;;6.23;80.50;102553.75;5023114;28;20048;-72
2022/04/28 02:20:06;;;;;;;17.70;8.57;;;;;;;6.20;80.58;102552.19;5044247;28;20124;-72
2022/04/28 02:22:33;;;;;;;17.70;8.85;;;;;;;6.16;81.08;102553.25;5056770;28;20503;-71
2022/04/28 02:24:59;;;;;;;17.90;8.93;;;;;;;6.13;80.97;102556.00;5042329;28;20029;-72
2022/04/28 02:27:27;;;;;;;17.38;9.27;;;;;;;6.12;81.54;102549.19;5026195;28;20040;-73
2022/04/28 02:29:53;;;;;;;17.83;8.23;;;;;;;6.10;81.42;102555.31;5025622;28;20085;-73
2022/04/28 02:32:19;;;;;;;15.73;8.63;;;;;;;6.06;81.27;102553.84;5071808;28;20033;-71
2022/04/28 02:34:44;;;;;;;16.98;8.60;;;;;;;6.02;81.76;102559.16;5044181;28;20035;-72
2022/04/28 02:37:10;;;;;;;20.17;8.95;;;;;;;6.00;82.17;102552.44;5041244;28;20032;-71
2022/04/28 02:39:37;;;;;;;15.82;8.55;;;;;;;5.98;82.13;102554.25;5045298;28;20085;-72
2022/04/28 02:42:06;;;;;;;16.52;8.63;;;;;;;5.95;81.96;102556.97;5042054;28;20027;-72
2022/04/28 02:44:31;;;;;;;15.05;8.52;;;;;;;5.92;81.78;102552.00;5040694;28;20036;-72
2022/04/28 02:46:58;;;;;;;16.02;8.07;;;;;;;5.90;82.23;102553.81;5041636;28;20483;-71
2022/04/28 02:49:26;;;;;;;16.55;8.75;;;;;;;5.89;81.99;102555.53;5041793;28;20119;-73
2022/04/28 02:51:53;;;;;;;27.65;10.18;;;;;;;5.85;82.46;102552.31;5042377;28;20081;-72
2022/04/28 02:54:19;;;;;;;18.38;9.25;;;;;;;5.81;82.58;102555.97;5043479;28;20033;-71
2022/04/28 02:56:47;;;;;;;20.17;9.73;;;;;;;5.79;82.35;102550.06;5042891;28;20032;-73
2022/04/28 02:59:13;;;;;;;22.13;9.05;;;;;;;5.81;82.55;102557.72;5074755;28;20103;-71
2022/04/28 03:01:38;;;;;;;20.48;9.25;;;;;;;5.81;82.22;102555.97;5040702;28;20111;-72
2022/04/28 03:04:06;;;;;;;22.20;8.98;;;;;;;5.81;82.03;102552.56;5060812;28;20325;-72
2022/04/28 03:12:01;;;;;;;25.58;10.32;;;;;;;5.76;81.93;102555.38;5074916;28;20035;-74
2022/04/28 03:14:26;;;;;;;19.42;10.00;;;;;;;5.72;82.17;102547.91;5047160;28;20032;-72
2022/04/28 03:16:52;;;;;;;21.95;9.00;;;;;;;5.70;82.00;102552.31;5043102;28;20029;-71
2022/04/28 03:19:18;;;;;;;24.52;9.55;;;;;;;5.69;82.39;102550.63;5061199;28;20033;-71
2022/04/28 03:21:44;;;;;;;20.23;9.93;;;;;;;5.67;82.62;102548.16;5045937;28;20032;-71
2022/04/28 03:24:10;;;;;;;23.02;9.32;;;;;;;5.64;82.79;102548.31;5043810;28;20062;-71
2022/04/28 03:26:38;;;;;;;16.95;9.30;;;;;;;5.59;82.87;102551.09;5061518;28;20036;-72
2022/04/28 03:29:06;;;;;;;15.98;8.98;;;;;;;5.56;82.91;102556.44;5043175;28;20033;-71
2022/04/28 03:31:32;;;;;;;17.77;9.63;;;;;;;5.54;82.96;102558.25;5046005;28;20286;-74
2022/04/28 03:34:24;;;;;;;16.67;9.32;;;;;;;5.49;83.17;102560.22;5050246;28;20029;-72
2022/04/28 03:36:51;;;;;;;21.33;9.23;;;;;;;5.47;83.18;102562.06;5046348;28;20060;-71
2022/04/28 03:39:20;;;;;;;19.77;9.02;;;;;;;5.44;83.11;102559.63;5060936;28;20040;-71
2022/04/28 03:41:45;;;;;;;22.38;11.57;;;;;;;5.40;83.62;102576.16;5045442;28;20284;-71
2022/04/28 03:44:11;;;;;;;19.58;9.00;;;;;;;5.34;83.78;102571.31;5061094;28;20291;-72
2022/04/28 03:46:40;;;;;;;20.10;8.98;;;;;;;5.30;83.78;102565.50;5042694;28;20075;-72
2022/04/28 03:49:06;;;;;;;21.77;10.45;;;;;;;5.26;83.54;102564.81;5044785;28;20729;-72
2022/04/28 03:51:32;;;;;;;19.98;9.73;;;;;;;5.25;84.54;102570.03;5064290;28;20064;-71
2022/04/28 03:54:00;;;;;;;21.60;10.40;;;;;;;5.23;83.50;102564.16;5041429;28;20043;-72
2022/04/28 03:56:30;;;;;;;24.02;10.50;;;;;;;5.23;84.18;102570.13;5063342;28;20158;-72
2022/04/28 03:58:59;;;;;;;27.95;10.23;;;;;;;5.20;83.67;102567.72;5076123;28;20132;-73
2022/04/28 04:01:24;;;;;;;19.00;9.73;;;;;;;5.16;83.95;102568.78;5061073;28;20028;-71
2022/04/28 04:04:05;;;;;;;22.70;11.45;;;;;;;5.15;84.16;102564.53;5045598;28;20024;-72
2022/04/28 04:06:32;;;;;;;19.88;10.57;;;;;;;5.15;84.17;102569.69;5045681;28;20086;-71
2022/04/28 04:09:15;;;;;;;27.85;11.75;;;;;;;5.15;84.00;102566.28;5063226;28;20082;-71
2022/04/28 04:11:41;;;;;;;19.60;10.52;;;;;;;5.14;84.13;102559.47;5043701;28;20033;-71
2022/04/28 04:14:06;;;;;;;23.67;10.88;;;;;;;5.14;83.83;102567.19;5058035;28;20431;-71
2022/04/28 04:16:33;;;;;;;24.08;11.68;;;;;;;5.10;83.69;102576.78;5058283;28;20040;-72
2022/04/28 04:19:05;;;;;;;30.55;13.10;;;;;;;5.11;83.85;102575.91;5044429;28;20035;-74
2022/04/28 04:21:31;;;;;;;23.60;10.85;;;;;;;5.06;84.14;102581.25;5043740;28;20040;-72
2022/04/28 04:23:58;;;;;;;25.13;10.52;;;;;;;5.03;84.37;102575.44;5046065;28;20036;-71
2022/04/28 04:26:24;;;;;;;20.17;10.68;;;;;;;5.02;84.61;102576.34;5028946;28;20557;-71
2022/04/28 04:28:53;;;;;;;25.67;11.80;;;;;;;4.99;85.01;102577.34;5075258;28;20044;-71
2022/04/28 04:34:53;;;;;;;21.55;11.60;;;;;;;4.93;85.78;102585.34;5050007;28;20036;-73
2022/04/28 04:37:22;;;;;;;25.42;11.02;;;;;;;4.94;85.83;102593.91;5062109;28;20139;-74
2022/04/28 04:39:49;;;;;;;24.08;10.80;;;;;;;4.95;85.85;102596.38;5046452;28;20437;-76
2022/04/28 04:42:15;;;;;;;22.40;11.45;;;;;;;4.95;85.94;102596.38;5059191;28;20029;-74
2022/04/28 04:44:44;;;;;;;25.50;11.30;;;;;;;4.95;85.96;102603.25;5063038;28;20199;-74
2022/04/28 04:47:13;;;;;;;;;;;;;;;4.96;86.16;102605.75;5059941;28;20119;-73
2022/04/28 04:49:59;;;;;;;27.27;11.60;;;;;;;4.98;86.13;102605.69;5031351;28;19956;-74
2022/04/28 04:52:36;;;;;;;28.13;12.45;;;;;;;4.96;86.16;102599.81;5058430;28;20029;-74
2022/04/28 04:55:04;;;;;;;22.38;12.05;;;;;;;4.96;86.20;102610.09;5045690;28;20040;-75
2022/04/28 04:57:32;;;;;;;24.63;12.35;;;;;;;4.97;86.72;102609.16;5041473;28;20040;-74
2022/04/28 04:59:58;;;;;;;25.05;11.48;;;;;;;4.99;86.36;102617.63;5042295;28;20028;-71
2022/04/28 05:02:26;;;;;;;22.88;12.15;;;;;;;5.02;86.91;102620.88;5043401;28;20040;-73
2022/04/28 05:05:30;;;;;;;27.40;11.70;;;;;;;5.01;86.77;102621.81;5019334;28;20039;-74
2022/04/28 05:08:14;;;;;;;;;;;;;;;5.05;86.79;102623.31;5074980;28;20481;-74
2022/04/28 05:10:51;;;;;;;23.15;12.65;;;;;;;5.05;87.38;102620.75;5075168;28;19920;-73
2022/04/28 05:13:16;;;;;;;27.65;13.30;;;;;;;5.12;87.31;102625.56;5043320;28;20025;-74
2022/04/28 05:15:53;;;;;;;30.52;13.70;;;;;;;5.14;87.75;102631.47;5028731;28;20535;-74
2022/04/28 05:18:23;;;;;;;35.08;13.02;;;;;;;5.18;87.20;102627.84;5042531;28;20048;-73
2022/04/28 05:20:52;;;;;;;30.63;14.68;;;;;;;5.35;86.99;102625.28;5057593;28;20032;-73
2022/04/28 05:23:44;;;;;;;33.97;13.32;;;;;;;5.37;86.65;102630.31;5059905;28;20100;-73
2022/04/28 05:26:28;;;;;;;28.48;13.48;;;;;;;5.37;86.29;102627.75;5059710;28;20086;-74
2022/04/28 05:29:14;;;;;;;29.98;13.55;;;;;;;5.39;86.82;102628.53;5006928;28;20055;-74
2022/04/28 05:31:52;;;;;;;36.03;15.00;;;;;;;5.49;86.23;102636.59;5042355;28;20029;-74
2022/04/28 05:34:53;;;;;;;32.00;14.05;;;;;;;5.47;85.72;102634.09;4977537;28;20130;-74
2022/04/28 05:37:21;;;;;;;29.67;14.27;;;;;;;5.62;85.81;102637.66;5029415;28;20120;-74
2022/04/28 05:39:46;;;;;;;33.70;13.93;;;;;;;5.63;85.42;102634.16;5029075;28;20043;-74
2022/04/28 05:42:12;;;;;;;41.22;14.55;;;;;;;5.63;85.60;102644.44;5039360;28;20036;-74
2022/04/28 05:47:24;;;;;;;35.72;15.10;;;;;;;5.72;85.66;102646.53;5061483;28;20036;-72
2022/04/28 05:49:52;;;;;;;38.65;15.30;;;;;;;5.85;85.19;102646.75;5045563;28;20032;-74
2022/04/28 05:52:18;;;;;;;32.85;14.05;;;;;;;5.88;84.05;102649.16;5044200;28;20029;-71
2022/04/28 05:54:45;;;;;;;29.45;13.45;;;;;;;6.11;84.01;102650.56;5044375;28;20024;-74
2022/04/28 05:57:11;;;;;;;32.33;14.23;;;;;;;6.45;83.03;102659.03;5074280;28;20028;-76
2022/04/28 05:59:38;;;;;;;29.55;14.50;;;;;;;6.86;81.35;102657.69;5039566;28;20277;-72
2022/04/28 06:02:22;;;;;;;30.25;13.88;;;;;;;7.27;78.72;102659.63;5060866;28;20181;-71
2022/04/28 06:04:48;;;;;;;40.85;12.95;;;;;;;7.54;77.32;102660.59;5044197;28;20028;-71
2022/04/28 06:07:13;;;;;;;28.55;12.48;;;;;;;7.84;76.28;102653.72;5042989;28;20402;-71
2022/04/28 06:09:47;;;;;;;27.35;13.00;;;;;;;8.00;75.62;102657.00;5055793;28;20158;-71
2022/04/28 06:12:16;;;;;;;28.33;13.32;;;;;;;8.19;74.78;102651.53;5057855;28;20028;-71
2022/04/28 06:15:09;;;;;;;30.57;13.20;;;;;;;8.52;73.85;102660.72;5065326;28;20041;-71
2022/04/28 06:17:43;;;;;;;30.38;13.45;;;;;;;8.63;72.68;102653.13;5041830;28;20053;-73
2022/04/28 06:20:10;;;;;;;29.83;13.95;;;;;;;8.76;71.97;102658.34;5074400;28;20024;-72
2022/04/28 06:23:12;;;;;;;37.20;15.45;;;;;;;8.89;72.54;102661.78;5046354;28;20503;-73
2022/04/28 06:25:47;;;;;;;24.77;13.65;;;;;;;9.01;71.99;102660.16;5028578;28;20037;-71
2022/04/28 06:28:16;;;;;;;30.15;13.20;;;;;;;9.00;71.02;102655.06;5056127;28;20036;-74
2022/04/28 06:30:48;;;;;;;26.92;13.05;;;;;;;9.00;70.53;102655.88;5046927;28;20068;-71
2022/04/28 06:33:40;;;;;;;34.15;14.57;;;;;;;8.79;72.59;102668.47;5036704;28;20039;-71
2022/04/28 06:36:12;;;;;;;;;;;;;;;8.49;73.58;102668.66;5058018;28;20056;-71
2022/04/28 06:38:40;;;;;;;28.55;13.43;;;;;;;8.38;74.37;102666.72;5044030;28;19918;-71
2022/04/28 06:41:09;;;;;;;32.97;15.27;;;;;;;8.33;75.13;102672.19;5042851;28;20039;-72
2022/04/28 06:43:37;;;;;;;56.63;26.13;;;;;;;8.19;74.55;102678.22;5043539;28;20173;-72
2022/04/28 06:46:22;;;;;;;29.00;14.23;;;;;;;8.23;74.27;102684.03;5046705;28;20094;-71
2022/04/28 06:49:06;;;;;;;37.40;15.70;;;;;;;8.33;74.35;102681.69;5047566;28;20047;-71
2022/04/28 06:51:50;;;;;;;32.58;13.50;;;;;;;8.49;75.21;102682.41;5063802;28;20736;-71
2022/04/28 06:54:44;;;;;;;35.15;13.65;;;;;;;8.74;74.70;102680.88;5048726;28;20039;-71
2022/04/28 06:57:13;;;;;;;32.00;14.18;;;;;;;8.94;73.62;102687.34;5050407;28;20482;-72
2022/04/28 06:59:40;;;;;;;31.50;13.77;;;;;;;9.27;72.13;102691.28;5048078;28;20048;-71
2022/04/28 07:02:10;;;;;;;38.63;14.88;;;;;;;9.55;70.49;102685.09;5077497;28;20024;-71
2022/04/28 07:04:38;;;;;;;34.33;14.25;;;;;;;10.31;68.94;102689.34;5064775;28;20119;-71
2022/04/28 07:07:04;;;;;;;36.50;13.75;;;;;;;11.02;65.92;102688.63;5045881;28;20078;-72
2022/04/28 07:09:30;;;;;;;26.75;13.63;;;;;;;11.65;63.36;102692.53;5078012;28;20033;-71
2022/04/28 07:11:55;;;;;;;31.35;12.35;;;;;;;12.08;60.89;102699.66;5034693;28;20049;-71
2022/04/28 07:14:47;;;;;;;37.97;13.02;;;;;;;12.51;58.67;102695.44;5064879;28;20032;-72
2022/04/28 07:17:32;;;;;;;35.25;13.43;;;;;;;13.00;57.09;102695.88;5063236;28;20095;-72
2022/04/28 07:19:59;;;;;;;29.17;12.73;;;;;;;13.09;57.35;102691.66;5029850;28;20020;-72
2022/04/28 07:22:25;;;;;;;27.50;12.73;;;;;;;13.59;56.88;102689.25;5046446;28;20051;-71
2022/04/28 07:24:50;;;;;;;30.65;13.07;;;;;;;13.54;55.34;102691.41;5047794;28;20398;-72
2022/04/28 07:27:16;;;;;;;23.15;11.63;;;;;;;13.67;55.58;102693.81;5048030;28;20036;-72
2022/04/28 07:29:45;;;;;;;28.55;12.02;;;;;;;14.03;55.02;102695.03;5065899;28;20047;-71
2022/04/28 07:32:13;;;;;;;28.30;12.15;;;;;;;14.45;53.63;102694.88;5045825;28;20035;-72
2022/04/28 07:35:07;;;;;;;22.77;12.05;;;;;;;14.46;52.77;102695.69;4957666;28;20063;-72
2022/04/28 07:37:55;;;;;;;24.17;12.25;;;;;;;14.40;53.39;102700.47;5061906;28;20102;-73
2022/04/28 07:40:33;;;;;;;23.92;11.82;;;;;;;14.63;52.06;102709.88;5058834;28;20693;-72
2022/04/28 07:43:03;;;;;;;29.45;12.00;;;;;;;15.15;50.76;102706.03;5045572;28;20025;-73
2022/04/28 07:45:29;;;;;;;24.33;11.35;;;;;;;15.25;50.26;102708.63;5045725;28;20032;-74
2022/04/28 07:47:57;;;;;;;30.92;12.05;;;;;;;15.22;49.99;102706.31;5063490;28;20025;-72
2022/04/28 07:50:24;;;;;;;28.83;11.57;;;;;;;15.51;50.30;102710.63;5029769;28;20028;-73
2022/04/28 07:52:54;;;;;;;27.70;13.02;;;;;;;15.53;50.82;102716.53;5044033;28;20028;-73
2022/04/28 07:55:21;;;;;;;26.73;12.32;;;;;;;15.48;50.05;102714.34;5044965;28;20017;-72
2022/04/28 07:57:49;;;;;;;23.83;11.07;;;;;;;15.93;49.40;102712.81;5044728;28;20033;-72
2022/04/28 08:00:23;;;;;;;25.52;11.57;;;;;;;16.03;48.59;102720.63;5043985;28;20054;-73
2022/04/28 08:02:53;;;;;;;24.33;13.27;;;;;;;16.29;48.48;102720.75;5030343;28;20218;-72
2022/04/28 08:05:24;;;;;;;30.55;12.57;;;;;;;16.29;48.45;102719.00;5045715;28;20113;-74
2022/04/28 08:07:49;;;;;;;25.35;11.07;;;;;;;16.34;47.94;102721.97;5044370;28;20582;-73
2022/04/28 08:10:15;;;;;;;22.58;11.90;;;;;;;16.57;48.14;102716.28;5046279;28;20036;-73
2022/04/28 08:12:41;;;;;;;24.85;11.07;;;;;;;16.61;46.84;102720.25;5045465;28;20024;-72
2022/04/28 08:15:27;;;;;;;25.27;12.48;;;;;;;16.38;49.18;102721.69;5032158;28;20597;-73
2022/04/28 08:17:53;;;;;;;24.52;11.10;;;;;;;16.68;46.85;102729.16;5059384;28;20112;-73
2022/04/28 08:20:18;;;;;;;22.48;11.82;;;;;;;16.65;46.90;102728.63;5050223;22;20040;-70
2022/04/28 08:22:44;;;;;;;24.85;11.35;;;;;;;16.48;48.08;102720.66;5063679;28;20077;-70
2022/04/28 08:25:10;;;;;;;27.55;10.93;;;;;;;16.64;48.04;102732.25;5078718;28;20555;-70
2022/04/28 08:27:36;;;;;;;21.75;11.63;;;;;;;17.12;48.08;102725.78;5066312;28;20028;-71
2022/04/28 08:30:03;;;;;;;26.30;11.00;;;;;;;17.37;45.96;102726.81;5067635;28;20024;-71
2022/04/28 08:32:28;;;;;;;23.33;11.38;;;;;;;17.21;46.58;102719.63;5068154;28;20032;-69
2022/04/28 08:34:54;;;;;;;28.13;11.32;;;;;;;17.29;46.82;102719.72;5061355;28;20082;-71
2022/04/28 08:37:19;;;;;;;24.83;11.25;;;;;;;17.56;46.50;102723.13;5066699;28;20036;-70
2022/04/28 08:39:45;;;;;;;22.23;11.05;;;;;;;17.77;44.92;102721.94;5064039;28;20028;-72
2022/04/28 08:42:16;;;;;;;22.88;11.63;;;;;;;17.58;45.40;102723.81;5049211;28;20136;-71
2022/04/28 08:45:02;;;;;;;39.47;12.77;;;;;;;18.08;45.44;102728.31;5082332;28;20016;-70
2022/04/28 08:47:58;;;;;;;;;;;;;;;18.18;45.04;102730.81;5069803;28;20058;-70
2022/04/28 08:50:47;;;;;;;26.92;10.90;;;;;;;17.21;45.28;102732.75;5074723;28;19912;-70
2022/04/28 08:53:13;;;;;;;19.90;10.70;;;;;;;17.50;46.35;102742.13;5083350;28;20040;-72
2022/04/28 08:55:42;;;;;;;25.33;10.85;;;;;;;17.57;45.19;102742.31;5047405;28;20035;-70
2022/04/28 08:58:09;;;;;;;23.73;10.65;;;;;;;17.71;45.06;102745.19;5083507;28;20028;-70
2022/04/28 09:00:40;;;;;;;25.67;10.93;;;;;;;17.41;44.56;102746.47;5045075;28;20059;-71
2022/04/28 09:03:28;;;;;;;22.90;11.50;;;;;;;16.66;45.99;102740.78;5059756;28;20040;-71
2022/04/28 09:06:19;;;;;;;19.98;10.48;;;;;;;17.38;46.11;102751.22;5077880;28;20064;-70
2022/04/28 09:09:23;;;;;;;23.55;11.40;;;;;;;17.53;45.36;102747.03;5062198;28;20707;-71
2022/04/28 09:12:02;;;;;;;20.73;11.27;;;;;;;17.79;44.82;102744.41;5082426;28;20028;-71
2022/04/28 09:14:42;;;;;;;27.80;11.05;;;;;;;17.78;44.60;102742.78;5065300;28;20044;-70
2022/04/28 09:17:08;;;;;;;21.48;11.13;;;;;;;17.96;43.41;102740.06;5067929;28;20593;-70
2022/04/28 09:19:38;;;;;;;22.88;10.90;;;;;;;17.70;45.32;102743.53;5066293;28;20031;-70
2022/04/28 09:22:13;;;;;;;20.25;10.40;;;;;;;17.65;44.75;102740.56;5080847;28;20525;-70
2022/04/28 09:24:44;;;;;;;19.75;9.95;;;;;;;18.03;44.73;102737.66;5063266;28;20024;-70
2022/04/28 09:27:11;;;;;;;26.25;11.60;;;;;;;17.88;44.31;102737.44;5064005;28;20043;-71
2022/04/28 09:29:39;;;;;;;23.75;10.38;;;;;;;18.45;43.77;102734.97;5064056;28;20035;-70
2022/04/28 09:32:17;;;;;;;20.90;10.45;;;;;;;17.96;43.13;102728.75;5063063;28;20116;-70
2022/04/28 09:35:08;;;;;;;19.25;10.48;;;;;;;18.05;43.10;102733.88;5083590;28;20279;-70
2022/04/28 09:37:50;;;;;;;26.15;10.10;;;;;;;18.56;43.52;102722.53;5081337;28;20040;-71
2022/04/28 09:43:03;;;;;;;26.45;10.98;;;;;;;18.34;42.19;102734.47;5064613;28;20024;-70
2022/04/28 09:45:39;;;;;;;23.77;10.05;;;;;;;17.99;42.28;102729.28;5059298;28;20020;-71
2022/04/28 09:48:06;;;;;;;20.08;10.02;;;;;;;18.05;43.02;102730.44;5061471;28;20510;-70
2022/04/28 09:50:41;;;;;;;20.17;10.32;;;;;;;18.34;43.60;102729.19;5062426;28;20039;-70
2022/04/28 09:53:34;;;;;;;22.48;10.52;;;;;;;18.54;44.65;102720.06;5083351;28;20117;-70
2022/04/28 09:56:24;;;;;;;20.40;10.38;;;;;;;18.78;43.10;102721.03;5082862;28;20031;-71
2022/04/28 09:59:04;;;;;;;19.53;10.40;;;;;;;18.69;41.30;102717.59;5064513;28;20602;-71
2022/04/28 10:01:33;;;;;;;24.13;11.25;;;;;;;18.52;41.56;102721.22;5059927;28;20465;-70
2022/04/28 10:03:59;;;;;;;19.98;10.30;;;;;;;18.66;42.92;102716.09;5079458;28;20028;-70
2022/04/28 10:06:42;;;;;;;24.00;10.55;;;;;;;18.67;41.67;102719.56;5059644;28;20031;-70
2022/04/28 10:09:17;;;;;;;23.13;10.80;;;;;;;18.13;41.67;102714.72;5048422;28;20040;-70
2022/04/28 10:11:49;;;;;;;17.73;9.85;;;;;;;18.16;42.92;102719.66;5084048;28;20081;-70
2022/04/28 10:14:22;;;;;;;17.90;10.52;;;;;;;18.20;41.18;102717.53;5065254;28;20056;-71
2022/04/28 10:16:49;;;;;;;16.95;10.38;;;;;;;18.07;42.19;102715.34;5065379;28;20032;-70
2022/04/28 10:19:25;;;;;;;21.80;10.50;;;;;;;18.02;44.03;102715.00;5066886;28;20036;-70
2022/04/28 10:22:07;;;;;;;18.30;11.13;;;;;;;17.96;42.60;102716.47;5065675;28;20027;-70
2022/04/28 10:33:15;;;;;;;17.23;9.68;;;;;;;18.05;43.29;102718.13;5081900;28;20082;-70
2022/04/28 10:35:42;;;;;;;24.00;10.75;;;;;;;17.95;43.29;102713.97;5063848;28;20040;-70
2022/04/28 10:38:24;;;;;;;16.85;10.10;;;;;;;17.83;43.92;102719.50;5083391;28;20036;-71
2022/04/28 10:41:10;;;;;;;18.50;10.60;;;;;;;17.86;42.81;102721.03;5063954;28;20039;-72
2022/04/28 10:43:38;;;;;;;19.92;10.82;;;;;;;17.87;45.33;102720.84;5081301;28;20033;-72
2022/04/28 10:46:06;;;;;;;15.88;10.20;;;;;;;17.86;44.46;102713.97;5082540;28;20170;-71
2022/04/28 10:48:42;;;;;;;21.85;11.52;;;;;;;18.01;44.57;102716.00;5061930;28;20032;-71
2022/04/28 10:51:18;;;;;;;17.58;9.77;;;;;;;18.33;42.12;102714.41;5063273;28;20040;-70
2022/04/28 10:54:09;;;;;;;19.17;10.27;;;;;;;18.30;43.01;102710.31;5081622;28;20063;-71
2022/04/28 10:56:54;;;;;;;16.55;10.38;;;;;;;18.28;41.85;102712.28;5078609;28;20081;-71
2022/04/28 10:59:27;;;;;;;17.10;10.18;;;;;;;18.20;42.55;102704.41;5047501;28;20036;-71
2022/04/28 11:01:53;;;;;;;24.40;10.65;;;;;;;17.73;43.86;102708.31;5074950;28;21440;-71
2022/04/28 11:04:26;;;;;;;20.98;11.45;;;;;;;18.08;43.35;102703.84;5061280;28;20036;-71
2022/04/28 11:06:55;;;;;;;16.55;10.13;;;;;;;18.31;43.89;102709.34;5079216;28;21492;-71
2022/04/28 11:09:42;;;;;;;19.65;10.73;;;;;;;18.25;43.31;102704.72;5063625;28;20044;-71
2022/04/28 11:12:12;;;;;;;25.58;11.73;;;;;;;18.31;44.73;102708.50;5082131;28;20047;-71
2022/04/28 11:15:03;;;;;;;20.95;10.95;;;;;;;18.41;41.58;102707.38;5077327;28;20024;-71
2022/04/28 11:17:30;;;;;;;18.70;11.15;;;;;;;18.58;41.35;102699.53;5060252;28;20478;-70
2022/04/28 11:20:01;;;;;;;17.83;10.25;;;;;;;18.80;41.31;102698.06;5062007;28;20250;-71
2022/04/28 11:22:32;;;;;;;14.30;9.98;;;;;;;18.48;41.24;102705.75;5082225;28;20493;-71
2022/04/28 11:24:59;;;;;;;24.38;10.98;;;;;;;18.25;39.92;102696.84;5079300;28;20035;-71
2022/04/28 11:27:39;;;;;;;18.52;10.05;;;;;;;18.49;40.89;102691.63;5062585;28;20040;-72
2022/04/28 11:30:13;;;;;;;20.88;10.27;;;;;;;18.37;40.72;102700.00;5062984;28;20032;-70
2022/04/28 11:32:51;;;;;;;20.83;11.35;;;;;;;18.41;41.29;102696.88;5085867;28;20043;-71
2022/04/28 11:35:18;;;;;;;18.05;10.65;;;;;;;18.27;40.84;102703.59;5084422;28;20574;-71
2022/04/28 11:37:44;;;;;;;17.85;10.88;;;;;;;18.39;38.43;102696.22;5068236;28;20706;-70
2022/04/28 11:40:14;;;;;;;18.88;11.23;;;;;;;18.22;41.10;102689.31;5066987;28;20509;-71
2022/04/28 11:42:45;;;;;;;21.77;11.15;;;;;;;18.04;40.46;102689.41;5069019;28;20529;-71
2022/04/28 11:45:11;;;;;;;15.55;10.40;;;;;;;18.16;41.00;102698.66;5068023;28;20036;-71
2022/04/28 11:47:43;;;;;;;18.95;9.32;;;;;;;18.44;41.77;102691.31;5064273;28;20111;-70
2022/04/28 11:50:17;;;;;;;24.35;10.45;;;;;;;18.43;40.34;102691.47;5085565;28;20039;-71
2022/04/28 11:52:43;;;;;;;16.05;9.27;;;;;;;18.37;38.46;102689.50;5063413;28;20051;-72
2022/04/28 11:55:09;;;;;;;27.95;12.45;;;;;;;17.95;38.38;102685.13;5064962;28;20585;-72
2022/04/28 11:57:41;;;;;;;18.98;10.20;;;;;;;18.21;40.44;102679.78;5068261;28;20662;-73
2022/04/28 12:00:09;;;;;;;19.90;10.65;;;;;;;18.20;42.45;102683.41;5083602;28;20415;-73
2022/04/28 12:02:38;;;;;;;21.35;10.57;;;;;;;18.21;41.00;102685.03;5084482;28;20131;-71
2022/04/28 12:05:19;;;;;;;19.65;10.98;;;;;;;18.38;39.85;102678.81;5062183;28;20127;-72
2022/04/28 12:07:51;;;;;;;17.73;9.73;;;;;;;18.32;39.68;102682.09;5085946;28;20035;-71
2022/04/28 12:16:13;;;;;;;15.57;8.55;;;;;;;17.99;36.45;102689.91;5085065;28;20062;-71